Time;durP1;ratioP1;P1;durP2;ratioP2;P2;SDS_P1;SDS_P2;PMS_P1;PMS_P2;Temp;Humidity;BMP_temperature;BMP_pressure;BME280_temperature;BME280_humidity;BME280_pressure;Samples;Min_cycle;Max_cycle;Signal;HPM_P1;HPM_P2
2022/08/26 00:00:20;;;;;;;7.38;3.92;;;;;19.60;94009.00;;;;7394798;19;20560;-78
2022/08/26 00:02:47;;;;;;;4.43;3.83;;;;;19.50;93992.00;;;;7391532;19;20235;-78
2022/08/26 00:05:15;;;;;;;5.05;3.70;;;;;19.50;94001.00;;;;7394277;19;20505;-78
2022/08/26 00:07:49;;;;;;;6.40;3.78;;;;;19.40;93996.00;;;;7394080;19;20627;-78
2022/08/26 00:10:19;;;;;;;3.95;3.65;;;;;19.40;93996.00;;;;7396095;19;20145;-78
2022/08/26 00:12:49;;;;;;;3.95;3.58;;;;;19.40;94003.00;;;;7395147;19;20156;-78
2022/08/26 00:15:24;;;;;;;3.83;3.47;;;;;19.50;93999.00;;;;7394761;19;20152;-79
2022/08/26 00:17:53;;;;;;;5.75;3.22;;;;;19.50;94006.00;;;;7391667;19;20121;-78
2022/08/26 00:20:25;;;;;;;3.67;3.38;;;;;19.50;94002.00;;;;7403139;19;20133;-78
2022/08/26 00:23:00;;;;;;;4.80;3.80;;;;;19.30;94001.00;;;;7402993;19;20129;-78
2022/08/26 00:25:28;;;;;;;3.80;3.50;;;;;19.30;93998.00;;;;7402832;19;20133;-78
2022/08/26 00:27:56;;;;;;;3.55;3.25;;;;;19.30;93996.00;;;;7403240;19;20153;-78
2022/08/26 00:30:37;;;;;;;4.30;3.38;;;;;19.30;93998.00;;;;7399471;19;20129;-78
2022/08/26 00:33:07;;;;;;;5.30;3.58;;;;;19.20;93996.00;;;;7401168;19;20153;-78
2022/08/26 00:35:46;;;;;;;3.58;3.28;;;;;19.10;93993.00;;;;7399947;19;20154;-78
2022/08/26 00:38:14;;;;;;;4.72;3.53;;;;;19.10;94002.00;;;;7399352;19;20157;-78
2022/08/26 00:40:56;;;;;;;5.78;3.60;;;;;19.20;93992.00;;;;7399576;19;20173;-79
2022/08/26 00:43:34;;;;;;;3.60;3.03;;;;;19.20;93993.00;;;;7404481;19;20154;-78
2022/08/26 00:46:20;;;;;;;4.88;3.30;;;;;19.20;93996.00;;;;7398750;19;20147;-79
2022/08/26 00:49:14;;;;;;;4.70;3.50;;;;;19.30;93995.00;;;;7401342;19;20177;-78
2022/08/26 00:51:51;;;;;;;4.55;3.38;;;;;19.40;93987.00;;;;7400757;19;20159;-78
2022/08/26 00:54:29;;;;;;;3.80;3.40;;;;;19.40;93984.00;;;;7401226;19;20572;-79
2022/08/26 00:57:08;;;;;;;4.00;3.58;;;;;19.40;93986.00;;;;7395626;19;20156;-79
2022/08/26 00:59:46;;;;;;;4.50;3.53;;;;;19.20;93994.00;;;;7402078;19;20149;-79
2022/08/26 01:02:15;;;;;;;3.67;3.38;;;;;19.20;93996.00;;;;7397407;19;20121;-77
2022/08/26 01:04:57;;;;;;;4.32;3.70;;;;;19.10;94002.00;;;;7397494;19;20181;-77
2022/08/26 01:07:27;;;;;;;3.80;2.85;;;;;19.10;93995.00;;;;7398951;19;20147;-76
2022/08/26 01:10:10;;;;;;;4.35;3.78;;;;;19.10;93995.00;;;;7398528;19;20162;-76
2022/08/26 01:12:48;;;;;;;3.92;3.63;;;;;19.10;93994.00;;;;7395918;19;20635;-76
2022/08/26 01:15:28;;;;;;;5.97;3.78;;;;;19.10;94002.00;;;;7395666;19;20505;-78
2022/08/26 01:18:00;;;;;;;5.32;3.80;;;;;19.20;93999.00;;;;7395346;19;20177;-77
2022/08/26 01:20:54;;;;;;;5.82;4.05;;;;;19.30;93997.00;;;;7394168;19;20619;-76
2022/08/26 01:23:34;;;;;;;4.38;3.67;;;;;19.20;93997.00;;;;7397401;19;20160;-76
2022/08/26 01:26:40;;;;;;;3.60;3.30;;;;;19.40;93991.00;;;;7397485;19;20165;-76
2022/08/26 01:29:18;;;;;;;5.80;3.63;;;;;19.40;93995.00;;;;7396143;19;20224;-76
2022/08/26 01:31:54;;;;;;;3.78;3.20;;;;;19.20;93996.00;;;;7396017;19;20612;-76
2022/08/26 01:34:33;;;;;;;8.80;3.50;;;;;19.10;94002.00;;;;7397630;19;20164;-76
2022/08/26 01:37:23;;;;;;;4.15;3.75;;;;;19.10;93999.00;;;;7395638;19;20639;-76
2022/08/26 01:39:53;;;;;;;3.65;3.35;;;;;19.20;94001.00;;;;7395964;19;20149;-75
2022/08/26 01:42:28;;;;;;;4.38;3.97;;;;;19.30;93998.00;;;;7396278;19;20226;-75
2022/08/26 01:45:02;;;;;;;6.15;3.65;;;;;19.50;93995.00;;;;7395810;19;20153;-75
2022/08/26 01:47:37;;;;;;;4.03;3.72;;;;;19.60;93990.00;;;;7398371;19;20449;-75
2022/08/26 01:50:12;;;;;;;4.10;3.70;;;;;19.50;93993.00;;;;7395619;19;20152;-76
2022/08/26 01:52:58;;;;;;;4.68;3.65;;;;;19.50;93999.00;;;;7395755;19;20190;-74
2022/08/26 01:55:33;;;;;;;3.72;3.42;;;;;19.50;93998.00;;;;7396570;19;20147;-75
2022/08/26 01:58:23;;;;;;;4.20;3.72;;;;;19.50;94000.00;;;;7394489;19;20129;-77
2022/08/26 02:00:51;;;;;;;4.88;3.70;;;;;19.40;93995.00;;;;7393011;19;20223;-75
2022/08/26 02:03:27;;;;;;;4.10;3.70;;;;;19.40;93995.00;;;;7393439;19;20172;-75
2022/08/26 02:06:04;;;;;;;8.35;3.53;;;;;19.40;93997.00;;;;7395611;19;20623;-77
2022/08/26 02:08:45;;;;;;;8.32;3.80;;;;;19.30;94010.00;;;;7396379;19;20154;-76
2022/08/26 02:11:14;;;;;;;4.95;3.53;;;;;19.10;94005.00;;;;7394408;19;20167;-76
2022/08/26 02:13:52;;;;;;;7.32;3.53;;;;;18.90;94003.00;;;;7393794;19;20197;-76
2022/08/26 02:16:24;;;;;;;4.57;3.92;;;;;18.90;94003.00;;;;7395734;19;20600;-76
2022/08/26 02:19:01;;;;;;;4.70;3.50;;;;;18.80;93996.00;;;;7396135;19;20152;-77
2022/08/26 02:21:31;;;;;;;3.60;3.30;;;;;18.80;94007.00;;;;7393007;19;20145;-76
2022/08/26 02:24:14;;;;;;;3.72;3.38;;;;;18.70;94001.00;;;;7395770;19;20136;-76
2022/08/26 02:26:43;;;;;;;4.68;3.45;;;;;18.50;94002.00;;;;7392940;19;20218;-76
2022/08/26 02:29:27;;;;;;;3.85;3.40;;;;;18.40;94006.00;;;;7393515;19;20564;-76
2022/08/26 02:31:55;;;;;;;3.95;3.60;;;;;18.50;94005.00;;;;7394321;19;20147;-77
2022/08/26 02:34:31;;;;;;;5.15;3.78;;;;;18.50;93999.00;;;;7393351;19;20160;-76
2022/08/26 02:37:04;;;;;;;4.03;3.70;;;;;18.50;94002.00;;;;7394104;19;20501;-76
2022/08/26 02:39:41;;;;;;;4.38;3.47;;;;;18.60;93999.00;;;;7394688;19;20148;-77
2022/08/26 02:42:09;;;;;;;6.47;3.53;;;;;18.50;93999.00;;;;7392320;19;20157;-77
2022/08/26 02:44:37;;;;;;;5.13;3.63;;;;;18.60;93995.00;;;;7392093;19;20236;-76
2022/08/26 02:47:14;;;;;;;4.72;3.47;;;;;18.70;93993.00;;;;7392839;19;20131;-76
2022/08/26 02:49:45;;;;;;;6.05;3.50;;;;;18.60;93983.00;;;;7393948;19;20632;-76
2022/08/26 02:52:20;;;;;;;3.67;3.35;;;;;18.50;93985.00;;;;7391610;19;20208;-77
2022/08/26 02:54:48;;;;;;;3.83;3.40;;;;;18.50;93985.00;;;;7391234;19;20173;-76
2022/08/26 02:57:18;;;;;;;3.83;3.20;;;;;18.50;93987.00;;;;7391971;19;20188;-76
2022/08/26 03:00:00;;;;;;;4.30;3.30;;;;;18.60;93987.00;;;;7394791;19;20223;-77
2022/08/26 03:02:28;;;;;;;5.35;3.58;;;;;18.50;93981.00;;;;7396818;19;20151;-76
2022/08/26 03:05:04;;;;;;;4.30;3.72;;;;;18.40;93985.00;;;;7394058;19;20171;-76
2022/08/26 03:07:31;;;;;;;4.03;3.20;;;;;18.30;93980.00;;;;7394022;19;20494;-77
2022/08/26 03:10:00;;;;;;;5.65;4.03;;;;;18.20;93980.00;;;;7393634;19;20513;-77
2022/08/26 03:12:35;;;;;;;4.28;3.72;;;;;18.10;93983.00;;;;7390143;19;20149;-76
2022/08/26 03:15:05;;;;;;;6.30;3.72;;;;;18.10;93975.00;;;;7394589;19;20153;-77
2022/08/26 03:17:46;;;;;;;3.65;3.35;;;;;18.20;93973.00;;;;7395043;19;20163;-76
2022/08/26 03:20:23;;;;;;;6.05;3.60;;;;;18.20;93979.00;;;;7394567;19;20609;-76
2022/08/26 03:22:52;;;;;;;3.80;3.40;;;;;18.30;93981.00;;;;7390624;19;20121;-77
2022/08/26 03:25:23;;;;;;;4.10;3.35;;;;;18.40;93978.00;;;;7394243;19;20152;-76
2022/08/26 03:27:57;;;;;;;4.65;3.47;;;;;18.40;93980.00;;;;7392039;19;20571;-77
2022/08/26 03:30:41;;;;;;;3.80;3.25;;;;;18.40;93980.00;;;;7393012;19;20149;-77
2022/08/26 03:33:15;;;;;;;3.70;3.40;;;;;18.30;93977.00;;;;7391520;19;20608;-76
2022/08/26 03:35:44;;;;;;;4.28;3.90;;;;;18.30;93978.00;;;;7392714;19;20609;-76
2022/08/26 03:38:12;;;;;;;6.47;3.88;;;;;18.30;93980.00;;;;7392048;19;20163;-76
2022/08/26 03:40:45;;;;;;;4.20;3.50;;;;;18.30;93968.00;;;;7393031;19;20636;-76
2022/08/26 03:43:17;;;;;;;3.58;3.28;;;;;18.40;93979.00;;;;7392530;19;20173;-76
2022/08/26 03:45:44;;;;;;;3.97;3.53;;;;;18.40;93979.00;;;;7390820;19;20178;-76
2022/08/26 03:48:18;;;;;;;3.90;3.55;;;;;18.30;93977.00;;;;7391734;19;20151;-76
2022/08/26 03:50:46;;;;;;;3.47;3.17;;;;;18.40;93973.00;;;;7393792;19;20658;-76
2022/08/26 03:53:15;;;;;;;5.10;3.47;;;;;18.30;93974.00;;;;7389465;19;20129;-76
2022/08/26 03:55:56;;;;;;;7.68;3.88;;;;;18.30;93973.00;;;;7399427;19;20992;-77
2022/08/26 03:58:24;;;;;;;4.00;3.40;;;;;18.40;93970.00;;;;7397736;19;20156;-77
2022/08/26 04:00:57;;;;;;;4.43;3.50;;;;;18.40;93970.00;;;;7400859;19;20128;-76
2022/08/26 04:06:18;;;;;;;6.13;3.53;;;;;18.50;93970.00;;;;7398288;19;20166;-76
2022/08/26 04:08:46;;;;;;;5.75;3.45;;;;;18.40;93976.00;;;;7399628;19;20503;-77
2022/08/26 04:11:19;;;;;;;4.43;3.83;;;;;18.30;93968.00;;;;7399294;19;20169;-76
2022/08/26 04:13:53;;;;;;;4.65;3.33;;;;;18.10;93966.00;;;;7399003;19;20128;-77
2022/08/26 04:16:21;;;;;;;3.58;3.28;;;;;18.00;93962.00;;;;7399205;19;20156;-76
2022/08/26 04:18:49;;;;;;;3.88;3.42;;;;;18.00;93965.00;;;;7395745;19;20145;-76
2022/08/26 04:21:24;;;;;;;5.95;3.70;;;;;18.00;93970.00;;;;7398398;19;20164;-76
2022/08/26 04:23:53;;;;;;;4.03;3.63;;;;;18.00;93971.00;;;;7397333;19;20156;-76
2022/08/26 04:26:22;;;;;;;5.22;4.00;;;;;18.20;93968.00;;;;7399860;19;20630;-77
2022/08/26 04:28:58;;;;;;;4.20;3.65;;;;;18.30;93964.00;;;;7398557;19;20152;-76
2022/08/26 04:31:26;;;;;;;3.40;3.10;;;;;18.40;93964.00;;;;7396656;19;20160;-77
2022/08/26 04:33:57;;;;;;;4.57;3.50;;;;;18.30;93961.00;;;;7399389;19;20152;-77
2022/08/26 04:36:31;;;;;;;5.35;3.55;;;;;18.30;93956.00;;;;7398852;19;20171;-77
2022/08/26 04:39:01;;;;;;;3.67;3.38;;;;;18.30;93957.00;;;;7394486;19;20216;-77
2022/08/26 04:41:30;;;;;;;4.53;3.55;;;;;18.30;93958.00;;;;7397764;19;20631;-77
2022/08/26 04:44:06;;;;;;;3.72;3.25;;;;;18.30;93955.00;;;;7399058;19;20152;-76
2022/08/26 04:46:35;;;;;;;6.65;3.53;;;;;18.50;93958.00;;;;7396624;19;20161;-76
2022/08/26 04:49:10;;;;;;;3.55;3.25;;;;;18.60;93952.00;;;;7397305;19;20580;-76
2022/08/26 04:51:44;;;;;;;4.20;3.33;;;;;18.70;93954.00;;;;7397508;19;20163;-77
2022/08/26 04:54:14;;;;;;;4.85;3.17;;;;;18.70;93961.00;;;;7396475;19;20560;-77
2022/08/26 04:56:45;;;;;;;4.82;3.78;;;;;18.90;93958.00;;;;7397698;19;20476;-77
2022/08/26 04:59:26;;;;;;;3.65;3.30;;;;;19.00;93957.00;;;;7396013;19;20152;-77
2022/08/26 05:01:59;;;;;;;3.60;3.30;;;;;19.00;93958.00;;;;7398161;19;20152;-77
2022/08/26 05:04:34;;;;;;;3.92;3.28;;;;;19.10;93957.00;;;;7396550;19;20596;-77
2022/08/26 05:07:03;;;;;;;4.25;3.67;;;;;19.20;93966.00;;;;7395873;19;20152;-77
2022/08/26 05:09:30;;;;;;;5.18;3.30;;;;;19.20;93964.00;;;;7398285;19;20141;-77
2022/08/26 05:12:05;;;;;;;4.40;3.42;;;;;19.20;93967.00;;;;7398772;19;20591;-78
2022/08/26 05:14:32;;;;;;;3.65;3.20;;;;;19.20;93962.00;;;;7395543;19;20144;-77
2022/08/26 05:17:00;;;;;;;3.78;3.10;;;;;19.30;93966.00;;;;7395309;19;20163;-77
2022/08/26 05:19:35;;;;;;;3.38;3.08;;;;;19.30;93962.00;;;;7398436;19;20546;-77
2022/08/26 05:22:06;;;;;;;7.20;3.45;;;;;19.10;93976.00;;;;7397789;19;20198;-77
2022/08/26 05:24:42;;;;;;;3.95;3.33;;;;;19.00;93970.00;;;;7393133;19;20216;-77
2022/08/26 05:27:09;;;;;;;4.63;3.53;;;;;18.90;93975.00;;;;7395398;19;20140;-76
2022/08/26 05:29:38;;;;;;;3.40;3.10;;;;;19.00;93977.00;;;;7393485;19;20161;-77
2022/08/26 05:32:12;;;;;;;2.83;2.58;;;;;19.20;93979.00;;;;7396288;19;20149;-76
2022/08/26 05:34:40;;;;;;;3.33;3.03;;;;;19.40;93966.00;;;;7396398;19;20511;-76
2022/08/26 05:37:09;;;;;;;3.58;3.28;;;;;19.70;93973.00;;;;7398497;19;20542;-77
2022/08/26 05:39:43;;;;;;;3.85;3.00;;;;;20.00;93971.00;;;;7397001;19;20120;-76
2022/08/26 05:42:18;;;;;;;3.75;3.45;;;;;20.20;93975.00;;;;7398083;19;20128;-77
2022/08/26 05:44:53;;;;;;;5.68;3.20;;;;;20.40;93977.00;;;;7397237;19;20173;-76
2022/08/26 05:47:23;;;;;;;3.35;2.90;;;;;20.60;93971.00;;;;7397029;19;20231;-76
2022/08/26 05:49:50;;;;;;;3.50;3.10;;;;;20.80;93977.00;;;;7396906;19;20137;-77
2022/08/26 05:52:24;;;;;;;4.85;3.10;;;;;21.00;93978.00;;;;7397329;19;20161;-77
2022/08/26 05:54:52;;;;;;;5.75;3.58;;;;;21.10;93982.00;;;;7395714;19;20168;-75
2022/08/26 05:57:35;;;;;;;3.63;3.25;;;;;21.20;93983.00;;;;7393178;19;20243;-75
2022/08/26 06:00:17;;;;;;;3.88;3.17;;;;;21.30;93981.00;;;;7395091;19;20162;-76
2022/08/26 06:02:44;;;;;;;3.55;3.20;;;;;21.60;93982.00;;;;7395616;19;20265;-76
2022/08/26 06:05:18;;;;;;;4.55;2.92;;;;;21.80;93982.00;;;;7397315;19;20145;-77
2022/08/26 06:11:04;;;;;;;3.33;3.03;;;;;22.20;93984.00;;;;7394943;19;20612;-75
2022/08/26 06:13:33;;;;;;;3.25;2.90;;;;;22.40;93982.00;;;;7395680;19;20128;-75
2022/08/26 06:16:11;;;;;;;3.70;3.40;;;;;22.70;93981.00;;;;7391005;19;20177;-77
2022/08/26 06:18:41;;;;;;;4.10;2.80;;;;;22.90;93979.00;;;;7394139;19;20133;-76
2022/08/26 06:21:17;;;;;;;4.63;3.25;;;;;23.00;93982.00;;;;7394415;19;20611;-77
2022/08/26 06:27:03;;;;;;;3.53;3.22;;;;;23.50;93977.00;;;;7395650;19;20153;-77
2022/08/26 06:29:33;;;;;;;3.40;3.10;;;;;23.60;93978.00;;;;7393675;19;20518;-75
2022/08/26 06:32:07;;;;;;;3.78;3.03;;;;;23.80;93986.00;;;;7395263;19;20505;-75
2022/08/26 06:34:35;;;;;;;9.77;3.15;;;;;24.00;93986.00;;;;7394066;19;20185;-75
2022/08/26 06:37:04;;;;;;;5.07;3.33;;;;;24.20;93992.00;;;;7393956;19;20894;-75
2022/08/26 06:39:38;;;;;;;3.40;3.10;;;;;24.60;93994.00;;;;7394555;19;20148;-77
2022/08/26 06:42:07;;;;;;;2.90;2.70;;;;;24.80;93988.00;;;;7394916;19;20498;-75
2022/08/26 06:44:37;;;;;;;4.30;2.90;;;;;24.90;93992.00;;;;7392510;19;20153;-76
2022/08/26 06:47:12;;;;;;;3.95;2.88;;;;;25.10;93988.00;;;;7394147;19;20159;-75
2022/08/26 06:49:39;;;;;;;4.53;3.13;;;;;25.40;93990.00;;;;7393968;19;20128;-77
2022/08/26 06:52:07;;;;;;;3.17;2.90;;;;;25.30;93991.00;;;;7393092;19;20173;-74
2022/08/26 06:54:47;;;;;;;3.42;3.13;;;;;25.40;93994.00;;;;7394223;19;20161;-75
2022/08/26 06:57:23;;;;;;;5.35;3.03;;;;;25.60;93995.00;;;;7390043;19;20260;-75
2022/08/26 06:59:58;;;;;;;6.95;2.95;;;;;25.70;93993.00;;;;7394122;19;20539;-76
2022/08/26 07:02:26;;;;;;;3.22;2.92;;;;;25.90;93994.00;;;;7394027;19;20169;-75
2022/08/26 07:04:55;;;;;;;3.70;3.40;;;;;25.80;93991.00;;;;7395940;19;20125;-76
2022/08/26 07:07:29;;;;;;;3.70;2.80;;;;;26.00;93995.00;;;;7394177;19;20488;-75
2022/08/26 07:09:56;;;;;;;3.90;2.92;;;;;26.20;93992.00;;;;7392819;19;20177;-76
2022/08/26 07:12:25;;;;;;;3.60;3.30;;;;;26.30;93999.00;;;;7393465;19;20220;-78
2022/08/26 07:14:59;;;;;;;4.57;3.00;;;;;26.50;93996.00;;;;7395390;19;20146;-75
2022/08/26 07:17:28;;;;;;;4.50;3.22;;;;;26.70;94003.00;;;;7393324;19;20157;-76
2022/08/26 07:19:58;;;;;;;5.97;3.75;;;;;26.60;94001.00;;;;7392261;19;20148;-76
2022/08/26 07:22:35;;;;;;;3.60;3.28;;;;;26.80;94002.00;;;;7394093;19;20145;-75
2022/08/26 07:25:09;;;;;;;4.47;3.78;;;;;26.80;94007.00;;;;7391984;19;20145;-74
2022/08/26 07:27:45;;;;;;;6.03;3.50;;;;;26.80;94004.00;;;;7389793;19;20156;-74
2022/08/26 07:30:20;;;;;;;4.60;3.83;;;;;27.20;94000.00;;;;7392493;19;20132;-76
2022/08/26 07:32:58;;;;;;;4.00;3.58;;;;;27.50;94000.00;;;;7394850;19;20550;-73
2022/08/26 07:35:26;;;;;;;6.35;4.07;;;;;27.80;94002.00;;;;7393055;19;20469;-75
2022/08/26 07:37:53;;;;;;;4.30;3.90;;;;;27.90;94001.00;;;;7393299;19;20623;-74
2022/08/26 07:40:29;;;;;;;5.43;3.42;;;;;27.60;94007.00;;;;7392670;19;20655;-75
2022/08/26 07:42:57;;;;;;;5.15;4.15;;;;;27.90;94004.00;;;;7391308;19;20874;-77
2022/08/26 07:45:27;;;;;;;4.35;3.95;;;;;28.40;94003.00;;;;7391450;19;20129;-76
2022/08/26 07:48:02;;;;;;;3.65;3.35;;;;;28.20;94016.00;;;;7393117;19;20184;-75
2022/08/26 07:50:31;;;;;;;6.80;4.00;;;;;27.90;94009.00;;;;7391629;19;20267;-77
2022/08/26 07:53:16;;;;;;;4.20;3.80;;;;;27.80;94013.00;;;;7394294;19;20132;-75
2022/08/26 07:55:57;;;;;;;3.92;3.60;;;;;27.90;94004.00;;;;7390351;19;20615;-77
2022/08/26 07:58:32;;;;;;;7.10;4.00;;;;;28.40;94018.00;;;;7391485;19;20151;-75
2022/08/26 08:01:09;;;;;;;7.45;3.55;;;;;28.60;94014.00;;;;7391010;19;20223;-75
2022/08/26 08:03:37;;;;;;;6.50;4.40;;;;;28.30;94021.00;;;;7390733;19;20208;-74
2022/08/26 08:06:05;;;;;;;5.38;4.35;;;;;28.00;94017.00;;;;7393065;19;20604;-75
2022/08/26 08:08:41;;;;;;;6.05;4.32;;;;;27.90;94012.00;;;;7392337;19;20159;-77
2022/08/26 08:11:08;;;;;;;7.60;4.45;;;;;28.10;94009.00;;;;7391116;19;20624;-75
2022/08/26 08:13:37;;;;;;;5.05;4.38;;;;;28.60;94018.00;;;;7392573;19;20157;-76
2022/08/26 08:16:12;;;;;;;6.90;4.78;;;;;28.80;94016.00;;;;7390774;19;20156;-74
2022/08/26 08:18:40;;;;;;;5.88;4.85;;;;;29.10;94014.00;;;;7389840;19;20152;-75
2022/08/26 08:21:08;;;;;;;5.03;4.53;;;;;29.30;94012.00;;;;7392219;19;20617;-76
2022/08/26 08:23:52;;;;;;;5.85;4.88;;;;;29.00;94013.00;;;;7392006;19;20628;-73
2022/08/26 08:26:20;;;;;;;8.95;5.50;;;;;29.10;94020.00;;;;7390143;19;20145;-74
2022/08/26 08:28:56;;;;;;;5.47;4.55;;;;;29.10;94017.00;;;;7389891;19;20164;-76
2022/08/26 08:31:29;;;;;;;8.40;4.60;;;;;29.10;94013.00;;;;7391197;19;20117;-74
2022/08/26 08:34:25;;;;;;;6.53;5.13;;;;;29.40;94011.00;;;;7391105;19;20152;-73
2022/08/26 08:36:53;;;;;;;4.72;4.30;;;;;29.40;94019.00;;;;7392557;19;20194;-73
2022/08/26 08:39:31;;;;;;;8.23;4.90;;;;;29.50;94021.00;;;;7391085;19;20148;-74
2022/08/26 08:42:05;;;;;;;7.75;4.75;;;;;29.60;94026.00;;;;7396879;19;20144;-73
2022/08/26 08:44:44;;;;;;;5.55;4.70;;;;;29.40;94026.00;;;;7398773;19;20155;-74
2022/08/26 08:47:23;;;;;;;11.05;5.03;;;;;29.50;94020.00;;;;7397385;19;20160;-74
2022/08/26 08:50:14;;;;;;;6.18;4.50;;;;;29.50;94023.00;;;;7397956;19;20615;-74
2022/08/26 08:52:47;;;;;;;10.48;4.30;;;;;29.80;94029.00;;;;7398505;19;20602;-74
2022/08/26 08:55:25;;;;;;;4.93;4.43;;;;;29.90;94020.00;;;;7397654;19;20503;-73
2022/08/26 08:58:13;;;;;;;5.63;5.13;;;;;30.10;94021.00;;;;7392951;19;20295;-76
2022/08/26 09:01:00;;;;;;;8.13;4.50;;;;;30.10;94016.00;;;;7397807;19;20160;-74
2022/08/26 09:03:43;;;;;;;6.53;5.35;;;;;30.00;94016.00;;;;7394227;19;20177;-73
2022/08/26 09:06:19;;;;;;;8.50;4.70;;;;;29.70;94018.00;;;;7397637;19;20141;-76
2022/08/26 09:08:49;;;;;;;5.95;4.95;;;;;29.90;94009.00;;;;7398207;19;20165;-75
2022/08/26 09:11:18;;;;;;;5.53;5.05;;;;;30.20;94003.00;;;;7397750;19;20148;-75
2022/08/26 09:13:54;;;;;;;5.43;4.88;;;;;30.40;94020.00;;;;7396181;19;20607;-74
2022/08/26 09:16:25;;;;;;;8.18;5.50;;;;;30.10;94016.00;;;;7397810;19;20164;-77
2022/08/26 09:19:34;;;;;;;9.13;4.75;;;;;29.30;94010.00;;;;7394776;19;20616;-76
2022/08/26 09:22:02;;;;;;;6.10;5.50;;;;;29.70;94009.00;;;;7395634;19;20160;-75
2022/08/26 09:24:40;;;;;;;6.03;4.70;;;;;30.10;94005.00;;;;7398862;19;20158;-75
2022/08/26 09:27:39;;;;;;;10.40;5.22;;;;;30.20;94002.00;;;;7398177;19;20133;-75
2022/08/26 09:30:26;;;;;;;6.47;4.65;;;;;30.20;94001.00;;;;7395729;19;20167;-75
2022/08/26 09:33:06;;;;;;;8.00;4.57;;;;;30.20;93999.00;;;;7396413;19;20148;-72
2022/08/26 09:35:47;;;;;;;8.05;5.60;;;;;29.90;93999.00;;;;7396041;19;20928;-73
2022/08/26 09:38:33;;;;;;;6.22;4.82;;;;;30.00;94000.00;;;;7395903;19;20184;-74
2022/08/26 09:41:23;;;;;;;6.35;5.10;;;;;30.20;93991.00;;;;7396116;19;20503;-74
2022/08/26 09:44:12;;;;;;;10.40;5.60;;;;;30.70;93993.00;;;;7396471;19;20156;-73
2022/08/26 09:46:56;;;;;;;8.48;5.50;;;;;30.70;94003.00;;;;7397309;19;20226;-74
2022/08/26 09:49:36;;;;;;;8.65;5.50;;;;;30.60;94002.00;;;;7393881;19;20622;-74
2022/08/26 09:52:21;;;;;;;9.75;5.90;;;;;30.90;93996.00;;;;7392661;19;20216;-74
2022/08/26 09:55:20;;;;;;;7.75;5.32;;;;;30.40;93996.00;;;;7395684;19;20477;-74
2022/08/26 09:58:03;;;;;;;6.90;5.60;;;;;30.40;93982.00;;;;7392268;19;20204;-74
2022/08/26 10:00:38;;;;;;;7.80;5.38;;;;;30.80;93977.00;;;;7394198;19;20753;-74
2022/08/26 10:03:26;;;;;;;9.68;5.43;;;;;31.30;93980.00;;;;7389511;19;20156;-75
2022/08/26 10:06:20;;;;;;;8.73;5.40;;;;;31.40;93966.00;;;;7395137;19;20141;-76
2022/08/26 10:09:00;;;;;;;6.82;4.72;;;;;31.40;93970.00;;;;7394823;19;20149;-74
2022/08/26 10:11:49;;;;;;;13.10;5.50;;;;;31.40;93961.00;;;;7395289;19;20139;-74
2022/08/26 10:14:55;;;;;;;9.18;5.18;;;;;31.10;93965.00;;;;7394688;19;20165;-75
2022/08/26 10:17:57;;;;;;;8.20;5.20;;;;;30.90;93967.00;;;;7392282;19;20497;-74
2022/08/26 10:20:40;;;;;;;8.20;5.38;;;;;30.10;93973.00;;;;7389783;19;20186;-75
2022/08/26 10:23:17;;;;;;;9.45;5.65;;;;;28.90;93979.00;;;;7393831;19;20601;-73
2022/08/26 10:26:07;;;;;;;11.43;5.40;;;;;28.60;93982.00;;;;7392623;19;20166;-76
2022/08/26 10:29:29;;;;;;;11.23;5.53;;;;;28.00;93972.00;;;;7393242;19;20629;-75
2022/08/26 10:32:15;;;;;;;9.13;5.70;;;;;28.10;93976.00;;;;7389799;19;20222;-75
2022/08/26 10:34:43;;;;;;;8.25;5.53;;;;;27.90;93973.00;;;;7394322;19;22166;-74
2022/08/26 10:37:25;;;;;;;10.25;5.90;;;;;27.80;93973.00;;;;7394611;19;20128;-76
2022/08/26 10:40:01;;;;;;;10.77;4.80;;;;;28.00;93970.00;;;;7391459;19;20659;-74
2022/08/26 10:42:45;;;;;;;5.63;4.85;;;;;28.00;93973.00;;;;7393305;19;20173;-73
2022/08/26 10:45:16;;;;;;;17.10;5.60;;;;;28.60;93951.00;;;;7392140;19;20148;-74
2022/08/26 10:48:03;;;;;;;12.75;5.80;;;;;29.10;93968.00;;;;7394156;19;20620;-74
2022/08/26 10:50:36;;;;;;;10.25;5.70;;;;;29.20;93961.00;;;;7393189;19;20682;-75
2022/08/26 10:53:47;;;;;;;9.63;5.57;;;;;29.10;93948.00;;;;7394527;19;20642;-76
2022/08/26 10:56:40;;;;;;;10.15;5.20;;;;;29.10;93962.00;;;;7390761;19;20167;-74
2022/08/26 10:59:36;;;;;;;8.18;5.47;;;;;29.00;93973.00;;;;7391468;19;20156;-74
2022/08/26 11:02:25;;;;;;;9.45;5.88;;;;;28.90;93957.00;;;;7392345;19;20190;-74
2022/08/26 11:05:21;;;;;;;9.88;5.57;;;;;28.30;93951.00;;;;7393514;19;20139;-74
2022/08/26 11:08:13;;;;;;;10.32;5.63;;;;;27.80;93944.00;;;;7393072;19;20148;-74
2022/08/26 11:10:57;;;;;;;9.18;5.22;;;;;27.70;93954.00;;;;7392501;19;20642;-73
2022/08/26 11:13:58;;;;;;;9.13;5.35;;;;;27.60;93957.00;;;;7392892;19;20476;-76
2022/08/26 11:16:53;;;;;;;11.95;5.15;;;;;27.40;93951.00;;;;7393549;19;20129;-74
2022/08/26 11:19:30;;;;;;;8.55;5.35;;;;;27.30;93952.00;;;;7391910;19;20568;-73
2022/08/26 11:22:36;;;;;;;10.85;5.60;;;;;27.50;93951.00;;;;7390665;19;20258;-73
2022/08/26 11:25:25;;;;;;;10.32;5.40;;;;;27.60;93931.00;;;;7392683;19;20518;-73
2022/08/26 11:27:59;;;;;;;9.35;5.32;;;;;28.30;93944.00;;;;7392242;19;20216;-74
2022/08/26 11:30:41;;;;;;;17.40;5.60;;;;;28.00;93944.00;;;;7392157;19;20140;-75
2022/08/26 11:33:42;;;;;;;6.85;5.45;;;;;27.70;93949.00;;;;7391859;19;20125;-75
2022/08/26 11:36:28;;;;;;;8.57;5.28;;;;;27.60;93947.00;;;;7394096;19;20131;-76
2022/08/26 11:39:27;;;;;;;8.00;5.20;;;;;26.90;93951.00;;;;7390690;19;20172;-76
2022/08/26 11:42:23;;;;;;;10.35;5.15;;;;;27.20;93945.00;;;;7393451;19;20137;-75
2022/08/26 11:45:01;;;;;;;12.48;5.38;;;;;26.60;93950.00;;;;7391951;19;20492;-73
2022/08/26 11:47:32;;;;;;;13.05;5.40;;;;;26.70;93940.00;;;;7394660;19;20143;-76
2022/08/26 11:50:26;;;;;;;9.70;5.57;;;;;26.60;93937.00;;;;7394384;19;20156;-75
2022/08/26 11:53:04;;;;;;;5.95;5.25;;;;;26.70;93936.00;;;;7391686;19;20132;-74
2022/08/26 11:55:43;;;;;;;10.07;5.40;;;;;26.40;93936.00;;;;7393373;19;20129;-75
2022/08/26 11:58:22;;;;;;;5.80;4.90;;;;;26.40;93948.00;;;;7390465;19;20186;-75
2022/08/26 12:01:01;;;;;;;8.02;4.75;;;;;26.50;93947.00;;;;7389349;19;20137;-75
2022/08/26 12:03:47;;;;;;;7.97;5.43;;;;;26.40;93940.00;;;;7389789;19;20631;-75
2022/08/26 12:06:33;;;;;;;8.05;4.75;;;;;26.80;93945.00;;;;7390366;19;20152;-75
2022/08/26 12:09:23;;;;;;;6.80;4.70;;;;;27.10;93944.00;;;;7389775;19;20527;-75
2022/08/26 12:12:13;;;;;;;6.53;4.85;;;;;27.00;93937.00;;;;7393160;19;20600;-74
2022/08/26 12:14:41;;;;;;;10.63;5.15;;;;;27.10;93944.00;;;;7393958;19;20164;-74
2022/08/26 12:17:26;;;;;;;5.38;4.63;;;;;26.80;93946.00;;;;7397899;19;20144;-75
2022/08/26 12:19:53;;;;;;;5.25;4.80;;;;;26.70;93945.00;;;;7397373;19;20584;-74
2022/08/26 12:22:34;;;;;;;6.57;4.40;;;;;26.80;93949.00;;;;7398522;19;20157;-74
2022/08/26 12:25:07;;;;;;;4.88;4.40;;;;;26.70;93942.00;;;;7396807;19;20142;-75
2022/08/26 12:27:44;;;;;;;8.18;4.50;;;;;26.70;93945.00;;;;7399658;19;20614;-73
2022/08/26 12:30:24;;;;;;;7.63;4.90;;;;;26.70;93939.00;;;;7399909;19;20128;-76
2022/08/26 12:33:09;;;;;;;5.40;4.90;;;;;26.80;93940.00;;;;7398494;19;20143;-73
2022/08/26 12:35:50;;;;;;;6.30;4.50;;;;;26.60;93942.00;;;;7398390;19;20147;-74
2022/08/26 12:38:25;;;;;;;4.97;4.50;;;;;26.50;93940.00;;;;7398850;19;20615;-73
2022/08/26 12:40:53;;;;;;;5.40;4.50;;;;;26.60;93936.00;;;;7395226;19;20168;-73
2022/08/26 12:43:44;;;;;;;6.22;5.00;;;;;26.70;93941.00;;;;7396664;19;20236;-75
2022/08/26 12:46:25;;;;;;;7.93;4.95;;;;;26.80;93936.00;;;;7399420;19;20129;-74
2022/08/26 12:48:53;;;;;;;6.47;4.40;;;;;26.90;93937.00;;;;7398843;19;20141;-75
2022/08/26 12:51:31;;;;;;;10.13;4.85;;;;;26.80;93933.00;;;;7397125;19;20710;-76
2022/08/26 12:53:59;;;;;;;5.10;4.18;;;;;26.90;93929.00;;;;7399220;19;20129;-73
2022/08/26 12:56:31;;;;;;;4.53;4.07;;;;;26.90;93929.00;;;;7396079;19;20157;-74
2022/08/26 12:59:32;;;;;;;5.10;4.40;;;;;27.00;93916.00;;;;7396967;19;20685;-76
2022/08/26 13:02:00;;;;;;;5.55;3.85;;;;;27.30;93916.00;;;;7393128;19;20169;-74
2022/08/26 13:04:38;;;;;;;6.45;4.05;;;;;27.30;93912.00;;;;7397347;19;20164;-74
2022/08/26 13:07:32;;;;;;;8.98;3.90;;;;;27.60;93902.00;;;;7395165;19;20612;-73
2022/08/26 13:10:05;;;;;;;5.18;4.15;;;;;27.40;93906.00;;;;7397095;19;20176;-75
2022/08/26 13:12:36;;;;;;;5.55;3.83;;;;;27.40;93896.00;;;;7395801;19;20807;-74